createdAt,value
2023-02-19T00:00:29.825Z,4.52
2023-02-19T00:03:21.541Z,4.45
2023-02-19T00:05:53.346Z,4.35
2023-02-19T00:08:25.217Z,4.43
2023-02-19T00:11:00.839Z,4.44
2023-02-19T00:13:36.370Z,4.41
2023-02-19T00:16:10.691Z,4.39
2023-02-19T00:18:42.629Z,4.41
2023-02-19T00:21:15.264Z,4.38
2023-02-19T00:23:49.272Z,4.35
2023-02-19T00:26:21.874Z,4.39
2023-02-19T00:28:56.607Z,4.36
2023-02-19T00:31:32.682Z,4.34
2023-02-19T00:34:07.161Z,4.40
2023-02-19T00:36:40.941Z,4.50
2023-02-19T00:39:16.145Z,4.54
2023-02-19T00:41:48.047Z,4.56
2023-02-19T00:44:19.964Z,4.50
2023-02-19T00:46:53.332Z,4.47
2023-02-19T00:49:26.020Z,4.45
2023-02-19T00:51:58.190Z,4.48
2023-02-19T00:54:31.556Z,4.50
2023-02-19T00:57:03.826Z,4.47
2023-02-19T00:59:36.849Z,4.49
2023-02-19T01:02:08.626Z,4.52
2023-02-19T01:04:40.749Z,4.51
2023-02-19T01:07:12.547Z,4.49
2023-02-19T01:09:44.686Z,4.48
2023-02-19T01:12:16.642Z,4.44
2023-02-19T01:14:48.379Z,4.42
2023-02-19T01:17:20.175Z,4.40
2023-02-19T01:19:52.155Z,4.34
2023-02-19T01:22:23.980Z,4.38
2023-02-19T01:24:56.539Z,4.41
2023-02-19T01:27:28.436Z,4.36
2023-02-19T01:30:00.260Z,4.31
2023-02-19T01:32:32.200Z,4.32
2023-02-19T01:35:04.497Z,4.31
2023-02-19T01:37:37.211Z,4.37
2023-02-19T01:40:10.541Z,4.43
2023-02-19T01:42:45.724Z,4.38
2023-02-19T01:45:26.294Z,4.26
2023-02-19T01:48:03.576Z,4.34
2023-02-19T01:50:42.500Z,4.42
2023-02-19T01:53:18.174Z,4.39
2023-02-19T01:55:54.013Z,4.34
2023-02-19T01:58:29.705Z,4.35
2023-02-19T02:01:03.207Z,4.39
2023-02-19T02:03:37.956Z,4.41
2023-02-19T02:06:18.816Z,4.34
2023-02-19T02:09:11.787Z,4.27
2023-02-19T02:11:47.196Z,4.29
2023-02-19T02:14:24.418Z,4.29
2023-02-19T02:17:06.511Z,4.40
2023-02-19T02:20:03.713Z,4.33
2023-02-19T02:22:43.085Z,4.28
2023-02-19T02:25:41.189Z,4.30
2023-02-19T02:28:47.525Z,4.28
2023-02-19T02:31:24.098Z,4.25
2023-02-19T02:34:01.251Z,4.25
2023-02-19T02:36:37.159Z,4.26
2023-02-19T02:39:12.847Z,4.27
2023-02-19T02:42:10.156Z,4.29
2023-02-19T02:45:03.640Z,4.21
2023-02-19T02:47:44.919Z,4.22
2023-02-19T02:50:21.058Z,4.18
2023-02-19T02:53:14.775Z,4.12
2023-02-19T02:55:49.027Z,4.12
2023-02-19T02:58:24.117Z,4.21
2023-02-19T03:01:18.123Z,4.32
2023-02-19T03:03:56.336Z,4.28
2023-02-19T03:06:32.770Z,4.24
2023-02-19T03:09:12.522Z,4.22
2023-02-19T03:12:05.407Z,4.24
2023-02-19T03:15:00.745Z,4.33
2023-02-19T03:18:10.883Z,4.34
2023-02-19T03:20:48.089Z,4.33
2023-02-19T03:23:21.743Z,4.30
2023-02-19T03:26:05.970Z,4.29
2023-02-19T03:29:05.880Z,4.27
2023-02-19T03:31:43.305Z,4.32
2023-02-19T03:34:23.006Z,4.28
2023-02-19T03:36:58.964Z,4.32
2023-02-19T03:39:31.984Z,4.30
2023-02-19T03:42:12.592Z,4.30
2023-02-19T03:44:54.323Z,4.34
2023-02-19T03:47:28.791Z,4.32
2023-02-19T03:50:08.297Z,4.39
2023-02-19T03:52:45.682Z,4.46
2023-02-19T03:55:24.414Z,4.45
2023-02-19T03:58:03.935Z,4.30
2023-02-19T04:00:43.777Z,4.38
2023-02-19T04:03:22.172Z,4.40
2023-02-19T04:05:59.712Z,4.44
2023-02-19T04:08:35.266Z,4.52
2023-02-19T04:11:10.115Z,4.42
2023-02-19T04:13:47.214Z,4.43
2023-02-19T04:16:22.838Z,4.43
2023-02-19T04:18:58.261Z,4.28
2023-02-19T04:21:32.157Z,4.29
2023-02-19T04:24:07.991Z,4.26
2023-02-19T04:26:40.210Z,4.20
2023-02-19T04:29:12.148Z,4.21
2023-02-19T04:31:44.313Z,4.19
2023-02-19T04:34:16.139Z,4.13
2023-02-19T04:36:48.070Z,4.16
2023-02-19T04:39:20.236Z,4.13
2023-02-19T04:41:52.347Z,4.15
2023-02-19T04:44:24.078Z,4.17
2023-02-19T04:46:55.935Z,4.20
2023-02-19T04:49:27.635Z,4.18
2023-02-19T04:51:59.473Z,4.15
2023-02-19T04:54:31.235Z,4.16
2023-02-19T04:57:02.901Z,4.06
2023-02-19T04:59:34.932Z,4.02
2023-02-19T05:02:06.836Z,3.93
2023-02-19T05:04:38.752Z,3.98
2023-02-19T05:07:10.817Z,4.10
2023-02-19T05:09:42.523Z,4.06
2023-02-19T05:12:14.148Z,4.05
2023-02-19T05:14:45.817Z,4.10
2023-02-19T05:17:17.525Z,4.06
2023-02-19T05:19:49.173Z,4.09
2023-02-19T05:22:21.038Z,4.00
2023-02-19T05:24:53.209Z,3.95
2023-02-19T05:27:25.175Z,3.96
2023-02-19T05:29:56.857Z,3.99
2023-02-19T05:32:28.889Z,4.05
2023-02-19T05:35:00.723Z,4.08
2023-02-19T05:37:32.818Z,3.99
2023-02-19T05:40:04.886Z,4.06
2023-02-19T05:42:36.394Z,4.02
2023-02-19T05:45:09.721Z,4.11
2023-02-19T05:47:41.425Z,4.14
2023-02-19T05:50:13.188Z,4.13
2023-02-19T05:52:45.180Z,4.04
2023-02-19T05:55:17.019Z,3.96
2023-02-19T05:57:49.625Z,3.95
2023-02-19T06:00:20.148Z,3.95
2023-02-19T06:02:52.250Z,3.94
2023-02-19T06:05:24.417Z,3.93
2023-02-19T06:07:56.348Z,3.85
2023-02-19T06:10:28.173Z,3.91
2023-02-19T06:12:59.979Z,3.86
2023-02-19T06:15:31.848Z,3.84
2023-02-19T06:18:04.020Z,3.82
2023-02-19T06:20:35.787Z,3.87
2023-02-19T06:23:07.845Z,3.92
2023-02-19T06:25:39.597Z,3.97
2023-02-19T06:28:11.351Z,4.03
2023-02-19T06:30:43.138Z,4.04
2023-02-19T06:33:14.926Z,4.00
2023-02-19T06:35:46.823Z,3.98
2023-02-19T06:38:18.746Z,3.96
2023-02-19T06:40:50.397Z,3.94
2023-02-19T06:43:24.358Z,4.04
2023-02-19T06:45:58.863Z,4.07
2023-02-19T06:48:32.317Z,4.03
2023-02-19T06:51:04.396Z,3.95
2023-02-19T06:53:36.164Z,3.94
2023-02-19T06:56:22.210Z,3.97
2023-02-19T06:58:55.658Z,3.91
2023-02-19T07:01:28.120Z,3.98
2023-02-19T07:04:00.146Z,4.02
2023-02-19T07:06:32.852Z,4.02
2023-02-19T07:09:06.516Z,3.96
2023-02-19T07:11:40.360Z,3.98
2023-02-19T07:14:17.179Z,4.04
2023-02-19T07:16:49.036Z,4.11
2023-02-19T07:19:21.050Z,4.10
2023-02-19T07:21:52.747Z,4.07
2023-02-19T07:24:24.516Z,4.16
2023-02-19T07:26:56.280Z,4.22
2023-02-19T07:29:28.352Z,4.13
2023-02-19T07:32:00.202Z,4.15
2023-02-19T07:34:32.207Z,4.14
2023-02-19T07:37:04.141Z,4.16
2023-02-19T07:39:36.087Z,4.21
2023-02-19T07:42:08.127Z,4.26
2023-02-19T07:44:39.836Z,4.24
2023-02-19T07:47:11.876Z,4.18
2023-02-19T07:49:43.739Z,4.20
2023-02-19T07:52:16.048Z,4.20
2023-02-19T07:54:47.852Z,4.22
2023-02-19T07:57:20.458Z,4.30
2023-02-19T07:59:52.752Z,4.28
2023-02-19T08:02:42.176Z,4.25
2023-02-19T08:05:14.363Z,4.30
2023-02-19T08:07:46.246Z,4.35
2023-02-19T08:10:36.363Z,4.37
2023-02-19T08:13:22.656Z,4.39
2023-02-19T08:16:01.715Z,4.41
2023-02-19T08:18:40.288Z,4.46
2023-02-19T08:21:12.665Z,4.46
2023-02-19T08:23:44.523Z,4.42
2023-02-19T08:26:16.490Z,4.53
2023-02-19T08:28:49.078Z,4.58
2023-02-19T08:31:19.413Z,4.59
2023-02-19T08:33:53.064Z,4.59
2023-02-19T08:36:25.373Z,4.57
2023-02-19T08:38:57.355Z,4.63
2023-02-19T08:41:29.361Z,4.69
2023-02-19T08:44:01.092Z,4.65
2023-02-19T08:46:34.434Z,4.64
2023-02-19T08:49:08.107Z,4.71
2023-02-19T08:51:40.413Z,4.72
2023-02-19T08:54:12.110Z,4.74
2023-02-19T08:56:44.068Z,4.76
2023-02-19T08:59:15.974Z,4.68
2023-02-19T09:01:47.792Z,4.68
2023-02-19T09:04:19.582Z,4.71
2023-02-19T09:06:51.542Z,4.68
2023-02-19T09:09:23.497Z,4.73
2023-02-19T09:11:55.463Z,4.75
2023-02-19T09:14:27.284Z,4.77
2023-02-19T09:16:59.066Z,4.81
2023-02-19T09:19:31.933Z,4.84
2023-02-19T09:22:04.620Z,4.81
2023-02-19T09:24:37.096Z,4.87
2023-02-19T09:27:09.851Z,4.96
2023-02-19T09:29:40.293Z,5.06
2023-02-19T09:32:12.579Z,5.10
2023-02-19T09:34:44.577Z,5.05
2023-02-19T09:37:16.506Z,5.05
2023-02-19T09:39:48.475Z,5.05
2023-02-19T09:42:26.136Z,5.09
2023-02-19T09:45:01.446Z,5.05
2023-02-19T09:47:35.372Z,5.06
2023-02-19T09:50:10.645Z,5.18
2023-02-19T09:52:46.314Z,5.26
2023-02-19T09:55:24.607Z,5.31
2023-02-19T09:57:58.077Z,5.23
2023-02-19T10:00:33.967Z,5.26
2023-02-19T10:03:12.508Z,5.40
2023-02-19T10:05:44.510Z,5.43
2023-02-19T10:08:20.042Z,5.31
2023-02-19T10:10:52.078Z,5.23
2023-02-19T10:13:28.748Z,5.28
2023-02-19T10:16:02.668Z,5.28
2023-02-19T10:18:42.547Z,5.35
2023-02-19T10:21:19.605Z,5.39
2023-02-19T10:23:55.297Z,5.36
2023-02-19T10:26:31.766Z,5.36
2023-02-19T10:29:03.914Z,5.31
2023-02-19T10:31:34.810Z,5.39
2023-02-19T10:34:17.716Z,5.45
2023-02-19T10:36:51.549Z,5.46
2023-02-19T10:39:42.229Z,5.56
2023-02-19T10:42:23.456Z,5.64
2023-02-19T10:45:01.667Z,5.62
2023-02-19T10:47:35.817Z,5.55
2023-02-19T10:50:08.708Z,5.55
2023-02-19T10:52:42.385Z,5.55
2023-02-19T10:55:29.453Z,5.67
2023-02-19T10:58:21.245Z,6.04
2023-02-19T11:01:13.152Z,6.22
2023-02-19T11:03:46.010Z,6.57
2023-02-19T11:06:17.358Z,6.66
2023-02-19T11:08:55.680Z,6.37
2023-02-19T11:11:36.685Z,6.17
2023-02-19T11:14:17.863Z,6.04
2023-02-19T11:16:52.971Z,5.93
2023-02-19T11:19:32.840Z,6.02
2023-02-19T11:22:19.577Z,5.93
2023-02-19T11:24:57.287Z,5.91
2023-02-19T11:27:30.378Z,5.81
2023-02-19T11:30:35.791Z,5.76
2023-02-19T11:33:31.017Z,5.81
2023-02-19T11:36:25.531Z,6.06
2023-02-19T11:38:58.777Z,6.08
2023-02-19T11:41:55.436Z,5.97
2023-02-19T11:44:41.008Z,5.91
2023-02-19T11:47:38.431Z,5.84
2023-02-19T11:50:22.628Z,5.80
2023-02-19T11:53:07.686Z,5.78
2023-02-19T11:55:57.588Z,5.76
2023-02-19T12:01:51.435Z,6.42
2023-02-19T12:05:01.531Z,6.74
2023-02-19T12:07:53.030Z,7.16
2023-02-19T12:10:33.087Z,7.17
2023-02-19T12:13:15.127Z,7.16
2023-02-19T12:16:03.347Z,7.44
2023-02-19T12:19:13.600Z,7.70
2023-02-19T12:21:57.681Z,7.71
2023-02-19T12:24:49.676Z,7.66
2023-02-19T12:27:32.296Z,7.68
2023-02-19T12:30:24.919Z,7.70
2023-02-19T12:33:25.105Z,7.71
2023-02-19T12:36:05.045Z,7.72
2023-02-19T12:38:44.145Z,7.86
2023-02-19T12:41:31.478Z,7.84
2023-02-19T12:44:10.442Z,7.72
2023-02-19T12:46:46.270Z,7.71
2023-02-19T12:49:26.953Z,7.78
2023-02-19T12:52:03.021Z,8.00
2023-02-19T12:54:39.948Z,8.08
2023-02-19T12:57:16.689Z,8.17
2023-02-19T12:59:52.787Z,7.96
2023-02-19T13:02:31.170Z,7.94
2023-02-19T13:05:08.342Z,8.09
2023-02-19T13:07:45.618Z,7.98
2023-02-19T13:10:30.887Z,7.42
2023-02-19T13:13:08.155Z,7.30
2023-02-19T13:15:43.227Z,7.33
2023-02-19T13:18:19.454Z,7.52
2023-02-19T13:20:55.048Z,7.72
2023-02-19T13:23:49.942Z,7.82
2023-02-19T13:26:39.844Z,7.84
2023-02-19T13:29:23.543Z,7.97
2023-02-19T13:32:11.411Z,7.98
2023-02-19T13:34:56.693Z,7.89
2023-02-19T13:37:32.807Z,7.95
2023-02-19T13:40:19.137Z,8.04
2023-02-19T13:42:57.420Z,8.06
2023-02-19T13:45:35.701Z,8.00
2023-02-19T13:48:26.477Z,8.05
2023-02-19T13:51:29.026Z,7.97
2023-02-19T13:54:14.179Z,7.82
2023-02-19T13:56:46.051Z,7.65
2023-02-19T13:59:37.001Z,7.74
2023-02-19T14:02:30.519Z,7.75
2023-02-19T14:05:07.649Z,7.81
2023-02-19T14:07:54.835Z,7.74
2023-02-19T14:10:57.728Z,7.70
2023-02-19T14:14:06.757Z,7.72
2023-02-19T14:16:55.842Z,7.72
2023-02-19T14:20:05.047Z,7.53
2023-02-19T14:23:02.855Z,7.51
2023-02-19T14:25:45.384Z,7.55
2023-02-19T14:28:24.156Z,7.50
2023-02-19T14:30:58.154Z,7.35
2023-02-19T14:33:32.195Z,7.44
2023-02-19T14:36:15.218Z,7.37
2023-02-19T14:38:48.345Z,7.36
2023-02-19T14:41:23.157Z,7.34
2023-02-19T14:43:57.499Z,7.34
2023-02-19T14:46:35.399Z,7.40
2023-02-19T14:49:15.864Z,7.34
2023-02-19T14:51:51.667Z,7.26
2023-02-19T14:54:37.670Z,7.17
2023-02-19T14:57:16.721Z,7.34
2023-02-19T15:00:00.186Z,8.07
2023-02-19T15:02:33.699Z,7.97
2023-02-19T15:05:18.005Z,7.88
2023-02-19T15:07:50.404Z,7.69
2023-02-19T15:10:23.097Z,7.62
2023-02-19T15:12:58.551Z,7.45
2023-02-19T15:15:33.535Z,7.26
2023-02-19T15:18:06.446Z,7.17
2023-02-19T15:20:40.010Z,7.11
2023-02-19T15:23:20.912Z,6.91
2023-02-19T15:25:54.071Z,6.79
2023-02-19T15:28:33.642Z,6.72
2023-02-19T15:31:17.311Z,6.56
2023-02-19T15:33:54.328Z,6.47
2023-02-19T15:36:33.812Z,6.52
2023-02-19T15:39:07.307Z,6.42
2023-02-19T15:41:39.812Z,6.43
2023-02-19T15:44:28.994Z,6.37
2023-02-19T15:47:07.963Z,6.23
2023-02-19T15:49:47.740Z,6.14
2023-02-19T15:52:32.909Z,6.02
2023-02-19T15:55:19.235Z,5.95
2023-02-19T15:57:59.030Z,5.96
2023-02-19T16:00:38.475Z,5.86
2023-02-19T16:03:21.700Z,5.81
2023-02-19T16:06:03.631Z,5.70
2023-02-19T16:08:37.285Z,5.63
2023-02-19T16:11:29.293Z,5.55
2023-02-19T16:14:25.319Z,5.53
2023-02-19T16:17:01.387Z,5.52
2023-02-19T16:19:43.609Z,5.49
2023-02-19T16:22:19.383Z,5.46
2023-02-19T16:24:53.978Z,5.35
2023-02-19T16:27:34.434Z,5.25
2023-02-19T16:30:25.455Z,5.18
2023-02-19T16:33:32.875Z,5.19
2023-02-19T16:39:18.990Z,5.17
2023-02-19T16:42:16.197Z,5.07
2023-02-19T16:44:51.308Z,5.04
2023-02-19T16:47:35.500Z,5.01
2023-02-19T16:50:16.022Z,5.00
2023-02-19T16:52:55.890Z,4.97
2023-02-19T16:55:28.911Z,4.97
2023-02-19T16:58:01.069Z,5.02
2023-02-19T17:00:33.951Z,5.01
2023-02-19T17:03:12.300Z,4.90
2023-02-19T17:05:44.965Z,4.82
2023-02-19T17:08:31.099Z,4.82
2023-02-19T17:11:05.201Z,4.85
2023-02-19T17:13:37.421Z,4.83
2023-02-19T17:16:12.181Z,4.78
2023-02-19T17:18:44.343Z,4.69
2023-02-19T17:21:19.255Z,4.71
2023-02-19T17:23:51.584Z,4.69
2023-02-19T17:26:28.543Z,4.66
2023-02-19T17:29:02.227Z,4.70
2023-02-19T17:31:35.967Z,4.64
2023-02-19T17:34:09.088Z,4.64
2023-02-19T17:36:40.507Z,4.65
2023-02-19T17:39:19.756Z,4.63
2023-02-19T17:41:52.511Z,4.55
2023-02-19T17:44:27.327Z,4.47
2023-02-19T17:47:01.014Z,4.35
2023-02-19T17:49:32.269Z,4.24
2023-02-19T17:52:04.618Z,4.17
2023-02-19T17:54:36.500Z,4.14
2023-02-19T17:57:08.401Z,4.16
2023-02-19T17:59:40.440Z,4.13
2023-02-19T18:02:12.285Z,4.11
2023-02-19T18:04:44.652Z,4.10
2023-02-19T18:07:16.408Z,4.00
2023-02-19T18:09:48.376Z,4.02
2023-02-19T18:12:20.180Z,3.94
2023-02-19T18:14:55.016Z,4.01
2023-02-19T18:17:27.507Z,3.99
2023-02-19T18:19:59.362Z,3.85
2023-02-19T18:22:31.197Z,3.81
2023-02-19T18:25:03.558Z,3.76
2023-02-19T18:27:35.541Z,3.67
2023-02-19T18:30:09.826Z,3.71
2023-02-19T18:32:41.830Z,3.68
2023-02-19T18:35:14.021Z,3.77
2023-02-19T18:37:46.294Z,3.69
2023-02-19T18:40:18.775Z,3.72
2023-02-19T18:42:51.146Z,3.68
2023-02-19T18:45:23.208Z,3.67
2023-02-19T18:47:55.217Z,3.63
2023-02-19T18:50:27.069Z,3.69
2023-02-19T18:52:58.870Z,3.65
2023-02-19T18:55:30.579Z,3.66
2023-02-19T18:58:02.360Z,3.67
2023-02-19T19:00:34.724Z,3.72
2023-02-19T19:03:06.978Z,3.63
2023-02-19T19:05:39.203Z,3.58
2023-02-19T19:08:11.041Z,3.56
2023-02-19T19:10:42.732Z,3.59
2023-02-19T19:13:14.508Z,3.54
2023-02-19T19:15:50.042Z,3.55
2023-02-19T19:18:22.503Z,3.43
2023-02-19T19:20:56.654Z,3.44
2023-02-19T19:23:28.540Z,3.40
2023-02-19T19:26:00.472Z,3.40
2023-02-19T19:28:33.722Z,3.41
2023-02-19T19:31:06.104Z,3.37
2023-02-19T19:33:38.336Z,3.39
2023-02-19T19:36:12.189Z,3.36
2023-02-19T19:38:43.998Z,3.44
2023-02-19T19:41:18.924Z,3.38
2023-02-19T19:43:50.649Z,3.37
2023-02-19T19:46:23.289Z,3.35
2023-02-19T19:48:55.084Z,3.29
2023-02-19T19:51:31.222Z,3.29
2023-02-19T19:54:04.414Z,3.35
2023-02-19T19:56:42.579Z,3.34
2023-02-19T19:59:15.713Z,3.26
2023-02-19T20:01:53.175Z,3.25
2023-02-19T20:04:26.666Z,3.24
2023-02-19T20:07:00.953Z,3.24
2023-02-19T20:09:32.658Z,3.15
2023-02-19T20:12:05.478Z,3.31
2023-02-19T20:14:37.245Z,3.29
2023-02-19T20:17:09.600Z,3.22
2023-02-19T20:19:41.494Z,3.17
2023-02-19T20:22:13.398Z,3.15
2023-02-19T20:24:45.459Z,3.11
2023-02-19T20:27:17.913Z,3.14
2023-02-19T20:29:50.008Z,3.16
2023-02-19T20:32:22.453Z,3.19
2023-02-19T20:34:55.522Z,3.16
2023-02-19T20:37:27.546Z,3.08
2023-02-19T20:39:59.450Z,3.06
2023-02-19T20:42:33.035Z,2.99
2023-02-19T20:45:05.320Z,2.99
2023-02-19T20:47:37.644Z,3.01
2023-02-19T20:50:11.423Z,2.93
2023-02-19T20:52:43.344Z,2.94
2023-02-19T20:55:15.251Z,2.98
2023-02-19T20:57:47.308Z,2.88
2023-02-19T21:00:20.196Z,2.90
2023-02-19T21:02:52.650Z,2.95
2023-02-19T21:05:25.039Z,2.94
2023-02-19T21:07:56.850Z,2.91
2023-02-19T21:10:28.620Z,2.87
2023-02-19T21:13:00.300Z,2.89
2023-02-19T21:15:32.119Z,2.85
2023-02-19T21:18:05.007Z,2.84
2023-02-19T21:20:36.931Z,2.91
2023-02-19T21:23:09.260Z,2.98
2023-02-19T21:25:41.625Z,2.99
2023-02-19T21:28:13.774Z,3.01
2023-02-19T21:30:45.752Z,2.99
2023-02-19T21:33:18.155Z,2.93
2023-02-19T21:35:50.450Z,2.90
2023-02-19T21:38:22.372Z,2.94
2023-02-19T21:40:54.339Z,2.94
2023-02-19T21:43:26.287Z,2.89
2023-02-19T21:45:58.545Z,2.93
2023-02-19T21:48:30.541Z,2.95
2023-02-19T21:51:02.472Z,2.94
2023-02-19T21:53:34.346Z,2.92
2023-02-19T21:56:06.842Z,2.91
2023-02-19T21:58:39.243Z,2.99
2023-02-19T22:01:11.101Z,2.93
2023-02-19T22:03:43.925Z,2.89
2023-02-19T22:06:16.437Z,2.87
2023-02-19T22:08:48.252Z,2.86
2023-02-19T22:11:20.713Z,2.89
2023-02-19T22:13:52.946Z,2.89
2023-02-19T22:16:25.665Z,2.85
2023-02-19T22:18:59.446Z,2.84
2023-02-19T22:21:33.186Z,2.79
2023-02-19T22:24:05.767Z,2.77
2023-02-19T22:26:37.879Z,2.70
2023-02-19T22:29:11.172Z,2.70
2023-02-19T22:31:43.483Z,2.68
2023-02-19T22:34:16.198Z,2.66
2023-02-19T22:36:48.324Z,2.66
2023-02-19T22:39:22.170Z,2.60
2023-02-19T22:41:54.568Z,2.60
2023-02-19T22:44:26.529Z,2.58
2023-02-19T22:46:59.016Z,2.53
2023-02-19T22:49:30.853Z,2.55
2023-02-19T22:52:07.586Z,2.57
2023-02-19T22:54:40.351Z,2.50
2023-02-19T22:57:10.747Z,2.48
2023-02-19T22:59:42.866Z,2.49
2023-02-19T23:02:14.773Z,2.47
2023-02-19T23:04:46.774Z,2.45
2023-02-19T23:07:18.691Z,2.40
2023-02-19T23:09:51.085Z,2.41
2023-02-19T23:12:23.218Z,2.41
2023-02-19T23:14:55.273Z,2.34
2023-02-19T23:17:27.019Z,2.35
2023-02-19T23:19:58.752Z,2.35
2023-02-19T23:22:30.645Z,2.30
2023-02-19T23:25:02.641Z,2.29
2023-02-19T23:27:34.316Z,2.31
2023-02-19T23:30:08.250Z,2.30
2023-02-19T23:32:40.159Z,2.31
2023-02-19T23:35:12.507Z,2.32
2023-02-19T23:37:44.650Z,2.29
2023-02-19T23:40:17.122Z,2.32
2023-02-19T23:42:49.961Z,2.34
2023-02-19T23:45:22.336Z,2.36
2023-02-19T23:47:54.033Z,2.38
2023-02-19T23:50:25.899Z,2.47
2023-02-19T23:52:59.149Z,2.63
2023-02-19T23:55:30.866Z,2.71
2023-02-19T23:58:02.553Z,2.67
